Language: 


Des rapports , des résumés tant et plus, au choix de chacun....


Données Historiques de Météogheer
Journalier Rapport pour Février 12, 2018 Unitée:  Les deux    Impériale   Métrique
Suivant Jour »
Journalier Hebdomadaire Mensuel Annuel Sur mesure
  Max: Min: Moyenne:
Température: 46.6 °F /  8.1 °C 32.4 °F /  0.2 °C 37.6 °F /  3.1 °C
Point de rosée: 33.8 °F /  1.0 °C 26.6 °F /  -3.0 °C 30.4 °F /  -0.9 °C
Humidité: 89% 49% 75%
Vent: 13.4mph /  21.6km/h - 5.2mph /  8.4km/h
Rafales: 17.2mph /  27.7km/h - -
Vent- - WSW
Pression: 30 in /  1016.1 hPa 29.8 in /  1009.0 hPa -
Pluie: 0 in /  0.0 mm    
Historical Graphs
 
 
Données tabulaires pour Février 12, 2018
Heure Température Point de rosée Pression Vent Vent Rafales Humidité Pluie Taux (Horaire) Conditions
00:01 33.8 °F /  1.0 °C 32 °F /  0.0 °C 29.8in /  1009.0hPa West 4.3mph /  6.9km/h 6.5mph /  10.5km/h 89% 0in /  0.0mm
00:06 33.8 °F /  1.0 °C 32 °F /  0.0 °C 29.8in /  1009.0hPa West 6mph /  9.7km/h 7.4mph /  11.9km/h 89% 0in /  0.0mm
00:11 33.8 °F /  1.0 °C 32 °F /  0.0 °C 29.8in /  1009.0hPa West 4.9mph /  7.9km/h 7.4mph /  11.9km/h 89% 0in /  0.0mm
00:16 33.8 °F /  1.0 °C 32 °F /  0.0 °C 29.8in /  1009.0hPa West 6.3mph /  10.1km/h 7.6mph /  12.2km/h 89% 0in /  0.0mm
00:21 34 °F /  1.1 °C 32 °F /  0.0 °C 29.8in /  1009.0hPa WSW 6.5mph /  10.5km/h 7.6mph /  12.2km/h 89% 0in /  0.0mm
00:26 34 °F /  1.1 °C 32 °F /  0.0 °C 29.8in /  1009.0hPa West 6mph /  9.7km/h 8.1mph /  13.0km/h 89% 0in /  0.0mm
00:32 34 °F /  1.1 °C 32 °F /  0.0 °C 29.8in /  1009.0hPa West 4.9mph /  7.9km/h 8.1mph /  13.0km/h 89% 0in /  0.0mm
00:37 34.2 °F /  1.2 °C 32 °F /  0.0 °C 29.8in /  1009.0hPa West 4.3mph /  6.9km/h 8.1mph /  13.0km/h 89% 0in /  0.0mm
00:42 34.2 °F /  1.2 °C 32 °F /  0.0 °C 29.8in /  1009.0hPa West 6.5mph /  10.5km/h 8.1mph /  13.0km/h 89% 0in /  0.0mm
00:47 34.2 °F /  1.2 °C 32 °F /  0.0 °C 29.8in /  1009.0hPa West 4.7mph /  7.6km/h 8.1mph /  13.0km/h 89% 0in /  0.0mm
00:52 34.2 °F /  1.2 °C 32 °F /  0.0 °C 29.8in /  1009.0hPa WSW 7.2mph /  11.6km/h 8.1mph /  13.0km/h 88% 0in /  0.0mm
00:57 34.2 °F /  1.2 °C 32 °F /  0.0 °C 29.8in /  1009.0hPa West 5.4mph /  8.7km/h 8.1mph /  13.0km/h 88% 0in /  0.0mm
01:02 34.2 °F /  1.2 °C 32 °F /  0.0 °C 29.8in /  1009.0hPa West 5.6mph /  9.0km/h 8.1mph /  13.0km/h 88% 0in /  0.0mm
01:07 34.3 °F /  1.3 °C 32 °F /  0.0 °C 29.8in /  1009.0hPa WSW 6.3mph /  10.1km/h 7.6mph /  12.2km/h 88% 0in /  0.0mm
01:12 34.3 °F /  1.3 °C 32 °F /  0.0 °C 29.8in /  1009.0hPa WSW 3.6mph /  5.8km/h 7.6mph /  12.2km/h 88% 0in /  0.0mm
01:17 34.3 °F /  1.3 °C 32 °F /  0.0 °C 29.8in /  1009.0hPa Calm   7.6mph /  12.2km/h 88% 0in /  0.0mm
01:22 34.3 °F /  1.3 °C 32 °F /  0.0 °C 29.8in /  1009.0hPa WNW 6mph /  9.7km/h 6.5mph /  10.5km/h 88% 0in /  0.0mm
01:27 34.3 °F /  1.3 °C 32 °F /  0.0 °C 29.8in /  1009.0hPa WSW 6.5mph /  10.5km/h 7.2mph /  11.6km/h 87% 0in /  0.0mm
01:32 34.5 °F /  1.4 °C 32 °F /  0.0 °C 29.8in /  1010.0hPa West 5.6mph /  9.0km/h 7.4mph /  11.9km/h 87% 0in /  0.0mm
01:37 34.5 °F /  1.4 °C 32 °F /  0.0 °C 29.8in /  1010.0hPa WSW 5.8mph /  9.3km/h 8.5mph /  13.7km/h 87% 0in /  0.0mm
01:42 34.5 °F /  1.4 °C 32 °F /  0.0 °C 29.8in /  1010.0hPa West 3.8mph /  6.1km/h 8.5mph /  13.7km/h 87% 0in /  0.0mm
01:47 34.5 °F /  1.4 °C 32 °F /  0.0 °C 29.8in /  1009.0hPa West 5.8mph /  9.3km/h 8.7mph /  14.0km/h 87% 0in /  0.0mm
01:52 34.7 °F /  1.5 °C 32 °F /  0.0 °C 29.8in /  1009.0hPa WSW 9.6mph /  15.4km/h 10.7mph /  17.2km/h 86% 0in /  0.0mm
01:57 34.9 °F /  1.6 °C 32 °F /  0.0 °C 29.8in /  1009.0hPa WSW 6.5mph /  10.5km/h 10.7mph /  17.2km/h 86% 0in /  0.0mm
02:02 34.9 °F /  1.6 °C 32 °F /  0.0 °C 29.8in /  1009.0hPa West 6mph /  9.7km/h 10.7mph /  17.2km/h 86% 0in /  0.0mm
02:07 34.9 °F /  1.6 °C 32 °F /  0.0 °C 29.8in /  1009.0hPa WSW 6.5mph /  10.5km/h 10.7mph /  17.2km/h 86% 0in /  0.0mm
02:12 35.1 °F /  1.7 °C 32 °F /  0.0 °C 29.8in /  1009.0hPa West 3.4mph /  5.5km/h 8.5mph /  13.7km/h 86% 0in /  0.0mm
02:17 35.2 °F /  1.8 °C 32 °F /  0.0 °C 29.8in /  1010.0hPa WSW 4.3mph /  6.9km/h 7.8mph /  12.6km/h 85% 0in /  0.0mm
02:22 35.2 °F /  1.8 °C 32 °F /  0.0 °C 29.8in /  1010.0hPa SSW 6mph /  9.7km/h 8.1mph /  13.0km/h 85% 0in /  0.0mm
02:27 35.4 °F /  1.9 °C 32 °F /  0.0 °C 29.8in /  1010.0hPa WNW 5.8mph /  9.3km/h 10.3mph /  16.6km/h 85% 0in /  0.0mm
02:33 35.6 °F /  2.0 °C 32 °F /  0.0 °C 29.8in /  1010.0hPa WSW 7.2mph /  11.6km/h 10.3mph /  16.6km/h 84% 0in /  0.0mm
02:38 35.6 °F /  2.0 °C 32 °F /  0.0 °C 29.8in /  1010.0hPa West 3.8mph /  6.1km/h 8.7mph /  14.0km/h 84% 0in /  0.0mm
02:43 35.6 °F /  2.0 °C 32 °F /  0.0 °C 29.8in /  1010.0hPa NW 7.8mph /  12.6km/h 9.2mph /  14.8km/h 83% 0in /  0.0mm
02:48 35.6 °F /  2.0 °C 32 °F /  0.0 °C 29.8in /  1010.0hPa West 6mph /  9.7km/h 9.2mph /  14.8km/h 83% 0in /  0.0mm
02:53 35.6 °F /  2.0 °C 32 °F /  0.0 °C 29.8in /  1010.0hPa West 2mph /  3.2km/h 11.9mph /  19.1km/h 83% 0in /  0.0mm
02:58 35.6 °F /  2.0 °C 32 °F /  0.0 °C 29.8in /  1010.0hPa West 8.5mph /  13.7km/h 11.9mph /  19.1km/h 83% 0in /  0.0mm
03:03 35.6 °F /  2.0 °C 32 °F /  0.0 °C 29.9in /  1011.1hPa WSW 1.3mph /  2.1km/h 8.9mph /  14.3km/h 82% 0in /  0.0mm
03:08 35.6 °F /  2.0 °C 32 °F /  0.0 °C 29.9in /  1011.1hPa WNW 6.7mph /  10.8km/h 8.9mph /  14.3km/h 82% 0in /  0.0mm
03:13 35.6 °F /  2.0 °C 32 °F /  0.0 °C 29.9in /  1011.1hPa SSW 5.8mph /  9.3km/h 8.7mph /  14.0km/h 82% 0in /  0.0mm
03:18 35.6 °F /  2.0 °C 32 °F /  0.0 °C 29.9in /  1011.1hPa South 4.9mph /  7.9km/h 10.3mph /  16.6km/h 82% 0in /  0.0mm
03:23 35.6 °F /  2.0 °C 32 °F /  0.0 °C 29.9in /  1011.1hPa NW 5.4mph /  8.7km/h 10.3mph /  16.6km/h 82% 0in /  0.0mm
03:28 35.6 °F /  2.0 °C 32 °F /  0.0 °C 29.9in /  1011.1hPa WSW 6.9mph /  11.1km/h 9.6mph /  15.4km/h 82% 0in /  0.0mm
03:33 35.6 °F /  2.0 °C 32 °F /  0.0 °C 29.9in /  1011.1hPa West 5.4mph /  8.7km/h 10.5mph /  16.9km/h 82% 0in /  0.0mm
03:38 35.6 °F /  2.0 °C 32 °F /  0.0 °C 29.9in /  1011.1hPa WNW 9.8mph /  15.8km/h 11mph /  17.7km/h 82% 0in /  0.0mm
03:43 35.6 °F /  2.0 °C 30.2 °F /  -1.0 °C 29.9in /  1011.1hPa WSW 6.5mph /  10.5km/h 11mph /  17.7km/h 81% 0in /  0.0mm
03:48 35.6 °F /  2.0 °C 32 °F /  0.0 °C 29.9in /  1011.1hPa WSW 5.6mph /  9.0km/h 11mph /  17.7km/h 82% 0in /  0.0mm
03:53 35.4 °F /  1.9 °C 30.2 °F /  -1.0 °C 29.9in /  1011.1hPa West 7.6mph /  12.2km/h 9.2mph /  14.8km/h 82% 0in /  0.0mm
03:58 35.4 °F /  1.9 °C 30.2 °F /  -1.0 °C 29.9in /  1011.1hPa WSW 7.4mph /  11.9km/h 10.3mph /  16.6km/h 82% 0in /  0.0mm
04:03 35.4 °F /  1.9 °C 30.2 °F /  -1.0 °C 29.9in /  1011.1hPa West 7.6mph /  12.2km/h 10.3mph /  16.6km/h 82% 0in /  0.0mm
04:08 35.4 °F /  1.9 °C 30.2 °F /  -1.0 °C 29.9in /  1011.1hPa WSW 4.9mph /  7.9km/h 10.3mph /  16.6km/h 82% 0in /  0.0mm
04:14 35.2 °F /  1.8 °C 30.2 °F /  -1.0 °C 29.9in /  1011.1hPa WNW 7.6mph /  12.2km/h 10.3mph /  16.6km/h 82% 0in /  0.0mm
04:19 35.2 °F /  1.8 °C 30.2 °F /  -1.0 °C 29.9in /  1011.1hPa West 7.2mph /  11.6km/h 11.9mph /  19.1km/h 82% 0in /  0.0mm
04:24 35.2 °F /  1.8 °C 30.2 °F /  -1.0 °C 29.9in /  1011.1hPa West 2.9mph /  4.7km/h 11.9mph /  19.1km/h 82% 0in /  0.0mm
04:29 35.4 °F /  1.9 °C 30.2 °F /  -1.0 °C 29.8in /  1010.0hPa West 3.8mph /  6.1km/h 9.6mph /  15.4km/h 83% 0in /  0.0mm
04:34 35.4 °F /  1.9 °C 30.2 °F /  -1.0 °C 29.8in /  1010.0hPa West 5.6mph /  9.0km/h 9.6mph /  15.4km/h 83% 0in /  0.0mm
04:39 35.4 °F /  1.9 °C 30.2 °F /  -1.0 °C 29.8in /  1010.0hPa West 6mph /  9.7km/h 9.6mph /  15.4km/h 83% 0in /  0.0mm
04:44 35.2 °F /  1.8 °C 30.2 °F /  -1.0 °C 29.8in /  1010.0hPa West 8.7mph /  14.0km/h 8.9mph /  14.3km/h 83% 0in /  0.0mm
04:49 35.1 °F /  1.7 °C 30.2 °F /  -1.0 °C 29.8in /  1010.0hPa WNW 5.6mph /  9.0km/h 8.7mph /  14.0km/h 82% 0in /  0.0mm
04:54 35.1 °F /  1.7 °C 30.2 °F /  -1.0 °C 29.8in /  1010.0hPa West 6.3mph /  10.1km/h 11mph /  17.7km/h 82% 0in /  0.0mm
04:59 35.1 °F /  1.7 °C 30.2 °F /  -1.0 °C 29.9in /  1011.1hPa West 6mph /  9.7km/h 11mph /  17.7km/h 82% 0in /  0.0mm
05:04 35.1 °F /  1.7 °C 30.2 °F /  -1.0 °C 29.9in /  1011.1hPa West 5.8mph /  9.3km/h 10.5mph /  16.9km/h 82% 0in /  0.0mm
05:09 35.1 °F /  1.7 °C 30.2 °F /  -1.0 °C 29.9in /  1011.1hPa WSW 9.4mph /  15.1km/h 10.5mph /  16.9km/h 83% 0in /  0.0mm
05:14 35.1 °F /  1.7 °C 30.2 °F /  -1.0 °C 29.9in /  1011.1hPa WSW 6.7mph /  10.8km/h 9.4mph /  15.1km/h 83% 0in /  0.0mm
05:19 34.9 °F /  1.6 °C 30.2 °F /  -1.0 °C 29.9in /  1011.1hPa West 5.4mph /  8.7km/h 8.5mph /  13.7km/h 83% 0in /  0.0mm
05:24 34.9 °F /  1.6 °C 30.2 °F /  -1.0 °C 29.9in /  1011.1hPa WSW 7.2mph /  11.6km/h 10.7mph /  17.2km/h 83% 0in /  0.0mm
05:29 34.9 °F /  1.6 °C 30.2 °F /  -1.0 °C 29.9in /  1011.1hPa West 6.3mph /  10.1km/h 10.7mph /  17.2km/h 83% 0in /  0.0mm
05:34 34.9 °F /  1.6 °C 30.2 °F /  -1.0 °C 29.9in /  1011.1hPa WSW 4.9mph /  7.9km/h 10.3mph /  16.6km/h 82% 0in /  0.0mm
05:39 34.7 °F /  1.5 °C 30.2 °F /  -1.0 °C 29.9in /  1011.1hPa West 5.6mph /  9.0km/h 8.7mph /  14.0km/h 83% 0in /  0.0mm
05:44 34.5 °F /  1.4 °C 30.2 °F /  -1.0 °C 29.9in /  1011.1hPa West 7.6mph /  12.2km/h 8.7mph /  14.0km/h 83% 0in /  0.0mm
05:49 34.5 °F /  1.4 °C 30.2 °F /  -1.0 °C 29.9in /  1011.1hPa West 7.4mph /  11.9km/h 8.7mph /  14.0km/h 83% 0in /  0.0mm
05:54 34.5 °F /  1.4 °C 30.2 °F /  -1.0 °C 29.9in /  1011.1hPa WNW 7.4mph /  11.9km/h 8.7mph /  14.0km/h 83% 0in /  0.0mm
05:59 34.5 °F /  1.4 °C 30.2 °F /  -1.0 °C 29.9in /  1012.1hPa West 7.6mph /  12.2km/h 8.5mph /  13.7km/h 83% 0in /  0.0mm
06:04 34.5 °F /  1.4 °C 30.2 °F /  -1.0 °C 29.9in /  1012.1hPa West 6.5mph /  10.5km/h 8.5mph /  13.7km/h 83% 0in /  0.0mm
06:10 34.5 °F /  1.4 °C 30.2 °F /  -1.0 °C 29.9in /  1012.1hPa West 4mph /  6.4km/h 8.5mph /  13.7km/h 83% 0in /  0.0mm
06:15 34.3 °F /  1.3 °C 30.2 °F /  -1.0 °C 29.9in /  1012.1hPa West 6mph /  9.7km/h 8.1mph /  13.0km/h 83% 0in /  0.0mm
06:20 34.2 °F /  1.2 °C 30.2 °F /  -1.0 °C 29.9in /  1012.1hPa WSW 5.6mph /  9.0km/h 7.8mph /  12.6km/h 84% 0in /  0.0mm
06:25 34 °F /  1.1 °C 30.2 °F /  -1.0 °C 29.9in /  1012.1hPa WSW 6.7mph /  10.8km/h 7.8mph /  12.6km/h 84% 0in /  0.0mm
06:30 33.8 °F /  1.0 °C 30.2 °F /  -1.0 °C 29.9in /  1012.1hPa WSW 5.4mph /  8.7km/h 8.5mph /  13.7km/h 84% 0in /  0.0mm
06:35 33.8 °F /  1.0 °C 30.2 °F /  -1.0 °C 29.9in /  1012.1hPa West 7.8mph /  12.6km/h 8.9mph /  14.3km/h 84% 0in /  0.0mm
06:40 33.6 °F /  0.9 °C 30.2 °F /  -1.0 °C 29.9in /  1012.1hPa Calm   8.9mph /  14.3km/h 85% 0in /  0.0mm
06:45 33.6 °F /  0.9 °C 30.2 °F /  -1.0 °C 29.9in /  1013.1hPa WSW 6.5mph /  10.5km/h 7.8mph /  12.6km/h 85% 0in /  0.0mm
06:50 33.6 °F /  0.9 °C 30.2 °F /  -1.0 °C 29.9in /  1013.1hPa WSW 6.5mph /  10.5km/h 8.7mph /  14.0km/h 85% 0in /  0.0mm
06:55 33.4 °F /  0.8 °C 30.2 °F /  -1.0 °C 29.9in /  1013.1hPa West 7.6mph /  12.2km/h 9.2mph /  14.8km/h 86% 0in /  0.0mm
07:00 33.4 °F /  0.8 °C 30.2 °F /  -1.0 °C 29.9in /  1013.1hPa West 5.6mph /  9.0km/h 9.2mph /  14.8km/h 86% 0in /  0.0mm
07:05 33.3 °F /  0.7 °C 30.2 °F /  -1.0 °C 29.9in /  1013.1hPa WSW 4.3mph /  6.9km/h 7.8mph /  12.6km/h 86% 0in /  0.0mm
07:10 33.1 °F /  0.6 °C 30.2 °F /  -1.0 °C 29.9in /  1013.1hPa WSW 4.3mph /  6.9km/h 7.6mph /  12.2km/h 86% 0in /  0.0mm
07:15 33.1 °F /  0.6 °C 30.2 °F /  -1.0 °C 29.9in /  1013.1hPa WSW 6.3mph /  10.1km/h 7.6mph /  12.2km/h 86% 0in /  0.0mm
07:20 33.1 °F /  0.6 °C 30.2 °F /  -1.0 °C 29.9in /  1013.1hPa Calm   6.5mph /  10.5km/h 86% 0in /  0.0mm
07:25 32.9 °F /  0.5 °C 30.2 °F /  -1.0 °C 29.9in /  1013.1hPa West 4mph /  6.4km/h 6.3mph /  10.1km/h 86% 0in /  0.0mm
07:30 32.9 °F /  0.5 °C 30.2 °F /  -1.0 °C 29.9in /  1013.1hPa West 5.4mph /  8.7km/h 8.1mph /  13.0km/h 86% 0in /  0.0mm
07:35 32.9 °F /  0.5 °C 30.2 °F /  -1.0 °C 29.9in /  1013.1hPa West 3.6mph /  5.8km/h 8.1mph /  13.0km/h 87% 0in /  0.0mm
07:40 33.1 °F /  0.6 °C 30.2 °F /  -1.0 °C 29.9in /  1013.1hPa West 4.3mph /  6.9km/h 8.1mph /  13.0km/h 87% 0in /  0.0mm
07:45 32.9 °F /  0.5 °C 30.2 °F /  -1.0 °C 29.9in /  1013.1hPa WSW 5.6mph /  9.0km/h 8.1mph /  13.0km/h 87% 0in /  0.0mm
07:50 32.7 °F /  0.4 °C 30.2 °F /  -1.0 °C 29.9in /  1013.1hPa West 5.4mph /  8.7km/h 8.1mph /  13.0km/h 87% 0in /  0.0mm
07:55 32.7 °F /  0.4 °C 30.2 °F /  -1.0 °C 29.9in /  1013.1hPa WSW 4.9mph /  7.9km/h 8.1mph /  13.0km/h 87% 0in /  0.0mm
08:01 32.5 °F /  0.3 °C 30.2 °F /  -1.0 °C 29.9in /  1013.1hPa West 6.5mph /  10.5km/h 7.2mph /  11.6km/h 87% 0in /  0.0mm
08:06 32.5 °F /  0.3 °C 30.2 °F /  -1.0 °C 29.9in /  1013.1hPa West 3.6mph /  5.8km/h 7.4mph /  11.9km/h 87% 0in /  0.0mm
08:11 32.5 °F /  0.3 °C 30.2 °F /  -1.0 °C 29.9in /  1013.1hPa West 5.8mph /  9.3km/h 7.4mph /  11.9km/h 88% 0in /  0.0mm
08:16 32.7 °F /  0.4 °C 30.2 °F /  -1.0 °C 29.9in /  1013.1hPa WSW 3.1mph /  5.0km/h 7.4mph /  11.9km/h 88% 0in /  0.0mm
08:21 32.5 °F /  0.3 °C 30.2 °F /  -1.0 °C 29.9in /  1013.1hPa WSW 1.3mph /  2.1km/h 7.8mph /  12.6km/h 88% 0in /  0.0mm
08:26 32.5 °F /  0.3 °C 30.2 °F /  -1.0 °C 29.9in /  1013.1hPa West 4.3mph /  6.9km/h 7.8mph /  12.6km/h 88% 0in /  0.0mm
08:31 32.5 °F /  0.3 °C 30.2 °F /  -1.0 °C 29.9in /  1014.1hPa West 3.8mph /  6.1km/h 7.6mph /  12.2km/h 88% 0in /  0.0mm
08:36 32.7 °F /  0.4 °C 30.2 °F /  -1.0 °C 29.9in /  1014.1hPa WSW 6.9mph /  11.1km/h 7.6mph /  12.2km/h 88% 0in /  0.0mm
08:41 32.5 °F /  0.3 °C 30.2 °F /  -1.0 °C 29.9in /  1014.1hPa Calm   7.4mph /  11.9km/h 88% 0in /  0.0mm
08:46 32.5 °F /  0.3 °C 30.2 °F /  -1.0 °C 29.9in /  1014.1hPa WSW 4.3mph /  6.9km/h 6.9mph /  11.1km/h 88% 0in /  0.0mm
08:51 32.4 °F /  0.2 °C 30.2 °F /  -1.0 °C 29.9in /  1014.1hPa WSW 4mph /  6.4km/h 6mph /  9.7km/h 88% 0in /  0.0mm
08:56 32.5 °F /  0.3 °C 30.2 °F /  -1.0 °C 29.9in /  1014.1hPa WSW 3.4mph /  5.5km/h 6mph /  9.7km/h 88% 0in /  0.0mm
09:01 32.9 °F /  0.5 °C 30.2 °F /  -1.0 °C 29.9in /  1014.1hPa West 4.9mph /  7.9km/h 6mph /  9.7km/h 89% 0in /  0.0mm
09:06 33.1 °F /  0.6 °C 30.2 °F /  -1.0 °C 29.9in /  1014.1hPa West 2.9mph /  4.7km/h 5.6mph /  9.0km/h 89% 0in /  0.0mm
09:11 33.3 °F /  0.7 °C 30.2 °F /  -1.0 °C 29.9in /  1014.1hPa West 2.9mph /  4.7km/h 6.5mph /  10.5km/h 89% 0in /  0.0mm
09:16 33.6 °F /  0.9 °C 32 °F /  0.0 °C 30in /  1015.1hPa WSW 4.9mph /  7.9km/h 6.5mph /  10.5km/h 89% 0in /  0.0mm
09:21 34 °F /  1.1 °C 30.2 °F /  -1.0 °C 30in /  1015.1hPa WSW 5.4mph /  8.7km/h 6.3mph /  10.1km/h 88% 0in /  0.0mm
09:26 34.3 °F /  1.3 °C 32 °F /  0.0 °C 30in /  1015.1hPa WSW 5.4mph /  8.7km/h 6mph /  9.7km/h 88% 0in /  0.0mm
09:31 34.7 °F /  1.5 °C 32 °F /  0.0 °C 30in /  1015.1hPa West 6mph /  9.7km/h 7.8mph /  12.6km/h 88% 0in /  0.0mm
09:36 34.9 °F /  1.6 °C 32 °F /  0.0 °C 30in /  1015.1hPa SSW 3.4mph /  5.5km/h 7.8mph /  12.6km/h 87% 0in /  0.0mm
09:41 35.2 °F /  1.8 °C 32 °F /  0.0 °C 30in /  1015.1hPa West 5.4mph /  8.7km/h 6.5mph /  10.5km/h 87% 0in /  0.0mm
09:46 35.4 °F /  1.9 °C 32 °F /  0.0 °C 30in /  1015.1hPa WSW 6.3mph /  10.1km/h 8.7mph /  14.0km/h 87% 0in /  0.0mm
09:51 35.6 °F /  2.0 °C 32 °F /  0.0 °C 30in /  1015.1hPa WSW 4.9mph /  7.9km/h 8.7mph /  14.0km/h 86% 0in /  0.0mm
09:56 36 °F /  2.2 °C 32 °F /  0.0 °C 30in /  1015.1hPa West 3.4mph /  5.5km/h 7.6mph /  12.2km/h 85% 0in /  0.0mm
10:01 36.1 °F /  2.3 °C 33.8 °F /  1.0 °C 30in /  1015.1hPa West 5.4mph /  8.7km/h 7.6mph /  12.2km/h 85% 0in /  0.0mm
10:07 36.7 °F /  2.6 °C 33.8 °F /  1.0 °C 30in /  1015.1hPa Calm   7.4mph /  11.9km/h 85% 0in /  0.0mm
10:12 37 °F /  2.8 °C 33.8 °F /  1.0 °C 30in /  1015.1hPa WSW 4.7mph /  7.6km/h 7.4mph /  11.9km/h 84% 0in /  0.0mm
10:17 37.2 °F /  2.9 °C 33.8 °F /  1.0 °C 29.9in /  1014.1hPa WSW 4.9mph /  7.9km/h 7.4mph /  11.9km/h 84% 0in /  0.0mm
10:22 37.6 °F /  3.1 °C 33.8 °F /  1.0 °C 29.9in /  1014.1hPa West 6.5mph /  10.5km/h 7.2mph /  11.6km/h 83% 0in /  0.0mm
10:27 37.9 °F /  3.3 °C 33.8 °F /  1.0 °C 29.9in /  1014.1hPa WSW 3.1mph /  5.0km/h 7.2mph /  11.6km/h 83% 0in /  0.0mm
10:32 38.1 °F /  3.4 °C 33.8 °F /  1.0 °C 30in /  1015.1hPa WSW 4mph /  6.4km/h 8.1mph /  13.0km/h 82% 0in /  0.0mm
10:37 38.5 °F /  3.6 °C 33.8 °F /  1.0 °C 30in /  1015.1hPa WSW 6.3mph /  10.1km/h 8.1mph /  13.0km/h 81% 0in /  0.0mm
10:42 38.7 °F /  3.7 °C 33.8 °F /  1.0 °C 30in /  1015.1hPa WSW 6.5mph /  10.5km/h 7.4mph /  11.9km/h 81% 0in /  0.0mm
10:47 39 °F /  3.9 °C 33.8 °F /  1.0 °C 30in /  1015.1hPa Calm   8.7mph /  14.0km/h 80% 0in /  0.0mm
10:52 39.4 °F /  4.1 °C 33.8 °F /  1.0 °C 30in /  1015.1hPa WSW 2mph /  3.2km/h 8.7mph /  14.0km/h 79% 0in /  0.0mm
10:57 39.7 °F /  4.3 °C 33.8 °F /  1.0 °C 30in /  1015.1hPa West 7.8mph /  12.6km/h 10.1mph /  16.3km/h 78% 0in /  0.0mm
11:02 39.9 °F /  4.4 °C 33.8 °F /  1.0 °C 30in /  1015.1hPa WNW 6.3mph /  10.1km/h 10.1mph /  16.3km/h 76% 0in /  0.0mm
11:07 40.1 °F /  4.5 °C 33.8 °F /  1.0 °C 30in /  1015.1hPa West 8.1mph /  13.0km/h 10.3mph /  16.6km/h 76% 0in /  0.0mm
11:12 40.3 °F /  4.6 °C 33.8 °F /  1.0 °C 30in /  1015.1hPa West 3.1mph /  5.0km/h 10.3mph /  16.6km/h 75% 0in /  0.0mm
11:17 40.6 °F /  4.8 °C 33.8 °F /  1.0 °C 30in /  1015.1hPa West 4mph /  6.4km/h 9.2mph /  14.8km/h 75% 0in /  0.0mm
11:22 40.6 °F /  4.8 °C 32 °F /  0.0 °C 30in /  1015.1hPa West 7.6mph /  12.2km/h 12.1mph /  19.5km/h 73% 0in /  0.0mm
11:27 40.8 °F /  4.9 °C 33.8 °F /  1.0 °C 30in /  1015.1hPa WSW 5.4mph /  8.7km/h 12.3mph /  19.8km/h 73% 0in /  0.0mm
11:32 41.2 °F /  5.1 °C 33.8 °F /  1.0 °C 30in /  1016.1hPa WSW 7.8mph /  12.6km/h 12.3mph /  19.8km/h 73% 0in /  0.0mm
11:37 41.7 °F /  5.4 °C 33.8 °F /  1.0 °C 30in /  1016.1hPa West 8.5mph /  13.7km/h 8.7mph /  14.0km/h 73% 0in /  0.0mm
11:42 41.5 °F /  5.3 °C 32 °F /  0.0 °C 30in /  1016.1hPa WSW 5.8mph /  9.3km/h 13.2mph /  21.2km/h 69% 0in /  0.0mm
11:47 41.7 °F /  5.4 °C 33.8 °F /  1.0 °C 30in /  1016.1hPa WSW 8.9mph /  14.3km/h 13.2mph /  21.2km/h 70% 0in /  0.0mm
11:52 41.7 °F /  5.4 °C 32 °F /  0.0 °C 30in /  1016.1hPa West 7.2mph /  11.6km/h 10.7mph /  17.2km/h 69% 0in /  0.0mm
11:57 42.1 °F /  5.6 °C 33.8 °F /  1.0 °C 30in /  1016.1hPa West 10.3mph /  16.6km/h 12.3mph /  19.8km/h 69% 0in /  0.0mm
12:02 42.3 °F /  5.7 °C 33.8 °F /  1.0 °C 30in /  1016.1hPa WNW 4.9mph /  7.9km/h 12.3mph /  19.8km/h 69% 0in /  0.0mm
12:07 42.6 °F /  5.9 °C 33.8 °F /  1.0 °C 30in /  1016.1hPa West 10.7mph /  17.2km/h 12.3mph /  19.8km/h 69% 0in /  0.0mm
12:12 42.4 °F /  5.8 °C 33.8 °F /  1.0 °C 30in /  1016.1hPa NW 5.4mph /  8.7km/h 12.8mph /  20.6km/h 67% 0in /  0.0mm
12:17 42.8 °F /  6.0 °C 32 °F /  0.0 °C 30in /  1015.1hPa WSW 7.8mph /  12.6km/h 12.8mph /  20.6km/h 66% 0in /  0.0mm
12:22 43 °F /  6.1 °C 32 °F /  0.0 °C 30in /  1015.1hPa West 12.3mph /  19.8km/h 12.3mph /  19.8km/h 66% 0in /  0.0mm
12:27 43.3 °F /  6.3 °C 33.8 °F /  1.0 °C 30in /  1015.1hPa WSW 7.4mph /  11.9km/h 12.3mph /  19.8km/h 65% 0in /  0.0mm
12:32 43.5 °F /  6.4 °C 32 °F /  0.0 °C 30in /  1016.1hPa West 8.7mph /  14.0km/h 10.5mph /  16.9km/h 64% 0in /  0.0mm
12:37 43.7 °F /  6.5 °C 33.8 °F /  1.0 °C 30in /  1016.1hPa West 2.9mph /  4.7km/h 10.1mph /  16.3km/h 64% 0in /  0.0mm
12:42 43.9 °F /  6.6 °C 32 °F /  0.0 °C 30in /  1016.1hPa West 8.7mph /  14.0km/h 12.3mph /  19.8km/h 61% 0in /  0.0mm
12:47 43.7 °F /  6.5 °C 32 °F /  0.0 °C 30in /  1016.1hPa WSW 9.6mph /  15.4km/h 12.3mph /  19.8km/h 60% 0in /  0.0mm
12:53 43.5 °F /  6.4 °C 30.2 °F /  -1.0 °C 30in /  1016.1hPa WSW 8.7mph /  14.0km/h 13.2mph /  21.2km/h 59% 0in /  0.0mm
12:58 43.9 °F /  6.6 °C 32 °F /  0.0 °C 30in /  1016.1hPa WNW 5.4mph /  8.7km/h 13.2mph /  21.2km/h 62% 0in /  0.0mm
13:03 43.9 °F /  6.6 °C 30.2 °F /  -1.0 °C 30in /  1015.1hPa WSW 10.1mph /  16.3km/h 13.2mph /  21.2km/h 59% 0in /  0.0mm
13:08 44.1 °F /  6.7 °C 30.2 °F /  -1.0 °C 30in /  1015.1hPa North 6.9mph /  11.1km/h 13.2mph /  21.2km/h 59% 0in /  0.0mm
13:13 44.2 °F /  6.8 °C 30.2 °F /  -1.0 °C 30in /  1015.1hPa West 8.1mph /  13.0km/h 13.2mph /  21.2km/h 58% 0in /  0.0mm
13:18 44.2 °F /  6.8 °C 30.2 °F /  -1.0 °C 30in /  1015.1hPa WSW 4.3mph /  6.9km/h 13.2mph /  21.2km/h 56% 0in /  0.0mm
13:23 43.9 °F /  6.6 °C 30.2 °F /  -1.0 °C 30in /  1015.1hPa West 8.1mph /  13.0km/h 9.8mph /  15.8km/h 56% 0in /  0.0mm
13:28 43.3 °F /  6.3 °C 28.4 °F /  -2.0 °C 30in /  1015.1hPa WNW 4.3mph /  6.9km/h 8.7mph /  14.0km/h 56% 0in /  0.0mm
13:33 43.3 °F /  6.3 °C 30.2 °F /  -1.0 °C 30in /  1015.1hPa West 10.5mph /  16.9km/h 10.5mph /  16.9km/h 57% 0in /  0.0mm
13:38 43.7 °F /  6.5 °C 30.2 °F /  -1.0 °C 30in /  1015.1hPa SSW 5.6mph /  9.0km/h 10.5mph /  16.9km/h 59% 0in /  0.0mm
13:43 44.8 °F /  7.1 °C 30.2 °F /  -1.0 °C 30in /  1015.1hPa South 4.9mph /  7.9km/h 10.5mph /  16.9km/h 58% 0in /  0.0mm
13:48 45.7 °F /  7.6 °C 32 °F /  0.0 °C 30in /  1015.1hPa West 7.2mph /  11.6km/h 10.5mph /  16.9km/h 58% 0in /  0.0mm
13:53 45.9 °F /  7.7 °C 32 °F /  0.0 °C 30in /  1015.1hPa WSW 9.6mph /  15.4km/h 11mph /  17.7km/h 57% 0in /  0.0mm
13:58 46.2 °F /  7.9 °C 32 °F /  0.0 °C 30in /  1015.1hPa WSW 7.6mph /  12.2km/h 12.5mph /  20.1km/h 57% 0in /  0.0mm
14:03 45.5 °F /  7.5 °C 30.2 °F /  -1.0 °C 30in /  1015.1hPa West 7.2mph /  11.6km/h 12.8mph /  20.6km/h 55% 0in /  0.0mm
14:08 45.9 °F /  7.7 °C 30.2 °F /  -1.0 °C 30in /  1015.1hPa West 7.8mph /  12.6km/h 12.8mph /  20.6km/h 54% 0in /  0.0mm
14:13 46 °F /  7.8 °C 30.2 °F /  -1.0 °C 30in /  1015.1hPa WSW 10.7mph /  17.2km/h 10.7mph /  17.2km/h 53% 0in /  0.0mm
14:18 45.9 °F /  7.7 °C 30.2 °F /  -1.0 °C 30in /  1015.1hPa West 6.3mph /  10.1km/h 13.9mph /  22.4km/h 52% 0in /  0.0mm
14:23 46 °F /  7.8 °C 30.2 °F /  -1.0 °C 30in /  1015.1hPa West 6.7mph /  10.8km/h 13.9mph /  22.4km/h 53% 0in /  0.0mm
14:28 46.2 °F /  7.9 °C 30.2 °F /  -1.0 °C 30in /  1015.1hPa WSW 7.6mph /  12.2km/h 12.5mph /  20.1km/h 52% 0in /  0.0mm
14:33 46.6 °F /  8.1 °C 30.2 °F /  -1.0 °C 30in /  1015.1hPa West 5.8mph /  9.3km/h 12.3mph /  19.8km/h 53% 0in /  0.0mm
14:38 46.4 °F /  8.0 °C 30.2 °F /  -1.0 °C 30in /  1015.1hPa West 11mph /  17.7km/h 12.1mph /  19.5km/h 52% 0in /  0.0mm
14:43 46.2 °F /  7.9 °C 30.2 °F /  -1.0 °C 30in /  1015.1hPa WSW 10.1mph /  16.3km/h 15.2mph /  24.5km/h 52% 0in /  0.0mm
14:48 46 °F /  7.8 °C 28.4 °F /  -2.0 °C 30in /  1015.1hPa WSW 10.5mph /  16.9km/h 15.2mph /  24.5km/h 50% 0in /  0.0mm
14:53 46 °F /  7.8 °C 28.4 °F /  -2.0 °C 30in /  1015.1hPa West 7.6mph /  12.2km/h 13.2mph /  21.2km/h 51% 0in /  0.0mm
14:58 45.5 °F /  7.5 °C 28.4 °F /  -2.0 °C 30in /  1015.1hPa West 12.8mph /  20.6km/h 17.2mph /  27.7km/h 49% 0in /  0.0mm
15:04 45.3 °F /  7.4 °C 26.6 °F /  -3.0 °C 30in /  1015.1hPa WSW 13.4mph /  21.6km/h 17.2mph /  27.7km/h 49% 0in /  0.0mm
15:09 45.3 °F /  7.4 °C 26.6 °F /  -3.0 °C 30in /  1015.1hPa West 10.3mph /  16.6km/h 15.4mph /  24.8km/h 49% 0in /  0.0mm
15:14 45.7 °F /  7.6 °C 28.4 °F /  -2.0 °C 30in /  1015.1hPa WSW 8.5mph /  13.7km/h 15.4mph /  24.8km/h 50% 0in /  0.0mm
15:19 45.1 °F /  7.3 °C 28.4 °F /  -2.0 °C 30in /  1015.1hPa WSW 8.5mph /  13.7km/h 13mph /  20.9km/h 50% 0in /  0.0mm
15:24 45.1 °F /  7.3 °C 28.4 °F /  -2.0 °C 30in /  1015.1hPa West 8.5mph /  13.7km/h 12.3mph /  19.8km/h 51% 0in /  0.0mm
15:29 45 °F /  7.2 °C 28.4 °F /  -2.0 °C 30in /  1016.1hPa West 11.2mph /  18.0km/h 11.2mph /  18.0km/h 51% 0in /  0.0mm
15:34 45.3 °F /  7.4 °C 28.4 °F /  -2.0 °C 30in /  1016.1hPa WSW 7.8mph /  12.6km/h 11.2mph /  18.0km/h 52% 0in /  0.0mm
15:39 45.1 °F /  7.3 °C 26.6 °F /  -3.0 °C 30in /  1016.1hPa West 8.7mph /  14.0km/h 13.9mph /  22.4km/h 49% 0in /  0.0mm
15:44 45.1 °F /  7.3 °C 26.6 °F /  -3.0 °C 30in /  1015.1hPa WSW 9.8mph /  15.8km/h 13.9mph /  22.4km/h 49% 0in /  0.0mm
15:49 44.8 °F /  7.1 °C 26.6 °F /  -3.0 °C 30in /  1015.1hPa West 5.6mph /  9.0km/h 13.2mph /  21.2km/h 50% 0in /  0.0mm
15:54 44.8 °F /  7.1 °C 26.6 °F /  -3.0 °C 30in /  1015.1hPa West 8.7mph /  14.0km/h 13.2mph /  21.2km/h 50% 0in /  0.0mm
15:59 45.1 °F /  7.3 °C 28.4 °F /  -2.0 °C 30in /  1015.1hPa West 11mph /  17.7km/h 12.8mph /  20.6km/h 50% 0in /  0.0mm
16:04 44.8 °F /  7.1 °C 26.6 °F /  -3.0 °C 30in /  1015.1hPa WSW 8.7mph /  14.0km/h 15.2mph /  24.5km/h 49% 0in /  0.0mm
16:09 44.8 °F /  7.1 °C 26.6 °F /  -3.0 °C 30in /  1015.1hPa WSW 12.8mph /  20.6km/h 15.2mph /  24.5km/h 49% 0in /  0.0mm
16:14 44.4 °F /  6.9 °C 26.6 °F /  -3.0 °C 30in /  1015.1hPa West 10.1mph /  16.3km/h 12.8mph /  20.6km/h 50% 0in /  0.0mm
16:19 44.1 °F /  6.7 °C 26.6 °F /  -3.0 °C 30in /  1015.1hPa WSW 7.4mph /  11.9km/h 12.8mph /  20.6km/h 50% 0in /  0.0mm
16:24 44.1 °F /  6.7 °C 26.6 °F /  -3.0 °C 30in /  1015.1hPa West 7.6mph /  12.2km/h 10.7mph /  17.2km/h 51% 0in /  0.0mm
16:29 43.7 °F /  6.5 °C 28.4 °F /  -2.0 °C 30in /  1015.1hPa West 9.4mph /  15.1km/h 10.1mph /  16.3km/h 52% 0in /  0.0mm
16:34 43.9 °F /  6.6 °C 28.4 °F /  -2.0 °C 30in /  1015.1hPa SW 6mph /  9.7km/h 10.1mph /  16.3km/h 53% 0in /  0.0mm
16:39 43.9 °F /  6.6 °C 28.4 °F /  -2.0 °C 30in /  1015.1hPa WNW 3.6mph /  5.8km/h 10.1mph /  16.3km/h 53% 0in /  0.0mm
16:45 43.7 °F /  6.5 °C 28.4 °F /  -2.0 °C 29.9in /  1014.1hPa West 3.8mph /  6.1km/h 9.6mph /  15.4km/h 53% 0in /  0.0mm
16:50 43.5 °F /  6.4 °C 28.4 °F /  -2.0 °C 29.9in /  1014.1hPa West 5.8mph /  9.3km/h 9.6mph /  15.4km/h 53% 0in /  0.0mm
16:55 43.3 °F /  6.3 °C 28.4 °F /  -2.0 °C 29.9in /  1014.1hPa WSW 10.3mph /  16.6km/h 10.3mph /  16.6km/h 54% 0in /  0.0mm
17:00 43 °F /  6.1 °C 28.4 °F /  -2.0 °C 30in /  1015.1hPa WSW 10.7mph /  17.2km/h 13.2mph /  21.2km/h 54% 0in /  0.0mm
17:05 42.8 °F /  6.0 °C 28.4 °F /  -2.0 °C 30in /  1015.1hPa WSW 7.6mph /  12.2km/h 13.2mph /  21.2km/h 54% 0in /  0.0mm
17:10 42.4 °F /  5.8 °C 28.4 °F /  -2.0 °C 30in /  1015.1hPa WSW 6mph /  9.7km/h 10.7mph /  17.2km/h 55% 0in /  0.0mm
17:15 42.3 °F /  5.7 °C 26.6 °F /  -3.0 °C 30in /  1015.1hPa WSW 8.1mph /  13.0km/h 11.2mph /  18.0km/h 54% 0in /  0.0mm
17:20 41.9 °F /  5.5 °C 28.4 °F /  -2.0 °C 30in /  1015.1hPa WSW 4.9mph /  7.9km/h 11.2mph /  18.0km/h 56% 0in /  0.0mm
17:25 41.5 °F /  5.3 °C 28.4 °F /  -2.0 °C 30in /  1015.1hPa West 6mph /  9.7km/h 9.4mph /  15.1km/h 57% 0in /  0.0mm
17:30 41.4 °F /  5.2 °C 28.4 °F /  -2.0 °C 29.9in /  1014.1hPa WSW 7.4mph /  11.9km/h 9.4mph /  15.1km/h 59% 0in /  0.0mm
17:35 41 °F /  5.0 °C 28.4 °F /  -2.0 °C 29.9in /  1014.1hPa WSW 7.2mph /  11.6km/h 10.1mph /  16.3km/h 58% 0in /  0.0mm
17:40 40.5 °F /  4.7 °C 26.6 °F /  -3.0 °C 29.9in /  1014.1hPa West 8.7mph /  14.0km/h 10.1mph /  16.3km/h 59% 0in /  0.0mm
17:45 40.3 °F /  4.6 °C 28.4 °F /  -2.0 °C 30in /  1015.1hPa WSW 5.4mph /  8.7km/h 8.7mph /  14.0km/h 60% 0in /  0.0mm
17:50 39.9 °F /  4.4 °C 28.4 °F /  -2.0 °C 30in /  1015.1hPa WSW 5.4mph /  8.7km/h 8.7mph /  14.0km/h 62% 0in /  0.0mm
17:55 39.2 °F /  4.0 °C 28.4 °F /  -2.0 °C 30in /  1015.1hPa WSW 2.2mph /  3.5km/h 7.6mph /  12.2km/h 63% 0in /  0.0mm
18:00 38.5 °F /  3.6 °C 28.4 °F /  -2.0 °C 30in /  1015.1hPa Calm   5.4mph /  8.7km/h 64% 0in /  0.0mm
18:06 38.1 °F /  3.4 °C 28.4 °F /  -2.0 °C 30in /  1015.1hPa SW 4.3mph /  6.9km/h 5.6mph /  9.0km/h 65% 0in /  0.0mm
18:11 37.9 °F /  3.3 °C 28.4 °F /  -2.0 °C 30in /  1015.1hPa WSW 4.3mph /  6.9km/h 6mph /  9.7km/h 67% 0in /  0.0mm
18:16 37.6 °F /  3.1 °C 28.4 °F /  -2.0 °C 29.9in /  1014.1hPa WSW 4.9mph /  7.9km/h 6.3mph /  10.1km/h 68% 0in /  0.0mm
18:21 37.6 °F /  3.1 °C 28.4 °F /  -2.0 °C 29.9in /  1014.1hPa SW 4.9mph /  7.9km/h 7.4mph /  11.9km/h 68% 0in /  0.0mm
18:26 37.6 °F /  3.1 °C 28.4 °F /  -2.0 °C 29.9in /  1014.1hPa WSW 5.8mph /  9.3km/h 7.4mph /  11.9km/h 69% 0in /  0.0mm
18:31 37.4 °F /  3.0 °C 28.4 °F /  -2.0 °C 30in /  1015.1hPa WSW 4.3mph /  6.9km/h 6.5mph /  10.5km/h 69% 0in /  0.0mm
18:36 37 °F /  2.8 °C 28.4 °F /  -2.0 °C 30in /  1015.1hPa Calm   6.5mph /  10.5km/h 69% 0in /  0.0mm
18:41 36.7 °F /  2.6 °C 28.4 °F /  -2.0 °C 30in /  1015.1hPa Calm   5.6mph /  9.0km/h 70% 0in /  0.0mm
18:46 36.3 °F /  2.4 °C 28.4 °F /  -2.0 °C 30in /  1015.1hPa SSW 4mph /  6.4km/h 5.8mph /  9.3km/h 70% 0in /  0.0mm
18:51 36.5 °F /  2.5 °C 30.2 °F /  -1.0 °C 30in /  1015.1hPa Calm   6mph /  9.7km/h 72% 0in /  0.0mm
18:56 36.7 °F /  2.6 °C 30.2 °F /  -1.0 °C 30in /  1015.1hPa SW 6mph /  9.7km/h 6.5mph /  10.5km/h 72% 0in /  0.0mm
19:01 36.9 °F /  2.7 °C 30.2 °F /  -1.0 °C 29.9in /  1014.1hPa SSW 3.8mph /  6.1km/h 6.7mph /  10.8km/h 72% 0in /  0.0mm
19:06 36.9 °F /  2.7 °C 28.4 °F /  -2.0 °C 29.9in /  1014.1hPa SSW 3.8mph /  6.1km/h 6.7mph /  10.8km/h 71% 0in /  0.0mm
19:11 36.9 °F /  2.7 °C 30.2 °F /  -1.0 °C 29.9in /  1014.1hPa Calm   6mph /  9.7km/h 72% 0in /  0.0mm
19:16 37 °F /  2.8 °C 30.2 °F /  -1.0 °C 30in /  1015.1hPa WSW 2.7mph /  4.3km/h 6mph /  9.7km/h 71% 0in /  0.0mm
19:21 37.2 °F /  2.9 °C 30.2 °F /  -1.0 °C 30in /  1015.1hPa SSW 3.6mph /  5.8km/h 6mph /  9.7km/h 71% 0in /  0.0mm
19:26 37.2 °F /  2.9 °C 30.2 °F /  -1.0 °C 30in /  1015.1hPa Calm   6mph /  9.7km/h 71% 0in /  0.0mm
19:31 37 °F /  2.8 °C 30.2 °F /  -1.0 °C 30in /  1015.1hPa Calm   6mph /  9.7km/h 71% 0in /  0.0mm
19:36 36.7 °F /  2.6 °C 28.4 °F /  -2.0 °C 30in /  1015.1hPa Calm   4.3mph /  6.9km/h 71% 0in /  0.0mm
19:41 36.5 °F /  2.5 °C 28.4 °F /  -2.0 °C 30in /  1015.1hPa Calm   4.3mph /  6.9km/h 71% 0in /  0.0mm
19:46 36.1 °F /  2.3 °C 28.4 °F /  -2.0 °C 30in /  1015.1hPa Calm   2.9mph /  4.7km/h 71% 0in /  0.0mm
19:52 35.8 °F /  2.1 °C 28.4 °F /  -2.0 °C 30in /  1015.1hPa Calm   2.9mph /  4.7km/h 72% 0in /  0.0mm
19:57 35.6 °F /  2.0 °C 28.4 °F /  -2.0 °C 30in /  1015.1hPa Calm   2.9mph /  4.7km/h 72% 0in /  0.0mm
20:02 35.6 °F /  2.0 °C 28.4 °F /  -2.0 °C 29.9in /  1014.1hPa Calm   1.3mph /  2.1km/h 73% 0in /  0.0mm
20:07 35.4 °F /  1.9 °C 28.4 °F /  -2.0 °C 29.9in /  1014.1hPa Calm   4mph /  6.4km/h 73% 0in /  0.0mm
20:12 35.4 °F /  1.9 °C 28.4 °F /  -2.0 °C 29.9in /  1014.1hPa South 0.9mph /  1.4km/h 4mph /  6.4km/h 74% 0in /  0.0mm
20:17 35.2 °F /  1.8 °C 28.4 °F /  -2.0 °C 29.9in /  1014.1hPa Calm   4.3mph /  6.9km/h 74% 0in /  0.0mm
20:22 35.1 °F /  1.7 °C 28.4 °F /  -2.0 °C 29.9in /  1014.1hPa SSW 3.1mph /  5.0km/h 4.3mph /  6.9km/h 75% 0in /  0.0mm
20:27 35.1 °F /  1.7 °C 28.4 °F /  -2.0 °C 29.9in /  1014.1hPa Calm   4.3mph /  6.9km/h 76% 0in /  0.0mm
20:32 34.9 °F /  1.6 °C 28.4 °F /  -2.0 °C 30in /  1015.1hPa Calm   3.4mph /  5.5km/h 76% 0in /  0.0mm
20:37 34.9 °F /  1.6 °C 28.4 °F /  -2.0 °C 30in /  1015.1hPa SSW 0.9mph /  1.4km/h 4.9mph /  7.9km/h 76% 0in /  0.0mm
20:42 35.1 °F /  1.7 °C 28.4 °F /  -2.0 °C 30in /  1015.1hPa SW 3.8mph /  6.1km/h 5.6mph /  9.0km/h 77% 0in /  0.0mm
20:47 35.2 °F /  1.8 °C 28.4 °F /  -2.0 °C 29.9in /  1014.1hPa SW 4mph /  6.4km/h 6.3mph /  10.1km/h 78% 0in /  0.0mm
20:52 35.4 °F /  1.9 °C 30.2 °F /  -1.0 °C 29.9in /  1014.1hPa SSW 3.8mph /  6.1km/h 6.3mph /  10.1km/h 78% 0in /  0.0mm
20:57 35.8 °F /  2.1 °C 30.2 °F /  -1.0 °C 29.9in /  1014.1hPa SSW 5.8mph /  9.3km/h 6mph /  9.7km/h 77% 0in /  0.0mm
21:02 36.1 °F /  2.3 °C 30.2 °F /  -1.0 °C 30in /  1015.1hPa SSW 4.9mph /  7.9km/h 8.5mph /  13.7km/h 78% 0in /  0.0mm
21:07 36.5 °F /  2.5 °C 30.2 °F /  -1.0 °C 30in /  1015.1hPa SSW 5.6mph /  9.0km/h 8.5mph /  13.7km/h 77% 0in /  0.0mm
21:12 36.7 °F /  2.6 °C 30.2 °F /  -1.0 °C 30in /  1015.1hPa SW 4.9mph /  7.9km/h 7.4mph /  11.9km/h 77% 0in /  0.0mm
21:17 36.9 °F /  2.7 °C 30.2 °F /  -1.0 °C 30in /  1015.1hPa SSW 5.4mph /  8.7km/h 7.2mph /  11.6km/h 77% 0in /  0.0mm
21:23 36.9 °F /  2.7 °C 30.2 °F /  -1.0 °C 30in /  1015.1hPa SSW 5.6mph /  9.0km/h 6.5mph /  10.5km/h 77% 0in /  0.0mm
21:28 36.9 °F /  2.7 °C 30.2 °F /  -1.0 °C 30in /  1015.1hPa SSW 4.7mph /  7.6km/h 7.2mph /  11.6km/h 76% 0in /  0.0mm
21:33 36.9 °F /  2.7 °C 30.2 °F /  -1.0 °C 29.9in /  1014.1hPa SSW 5.4mph /  8.7km/h 7.8mph /  12.6km/h 76% 0in /  0.0mm
21:38 36.9 °F /  2.7 °C 30.2 °F /  -1.0 °C 29.9in /  1014.1hPa SSW 1.1mph /  1.8km/h 7.8mph /  12.6km/h 76% 0in /  0.0mm
21:43 36.7 °F /  2.6 °C 30.2 °F /  -1.0 °C 29.9in /  1014.1hPa SW 5.4mph /  8.7km/h 6.5mph /  10.5km/h 76% 0in /  0.0mm
21:48 36.5 °F /  2.5 °C 30.2 °F /  -1.0 °C 30in /  1015.1hPa SSW 5.6mph /  9.0km/h 7.4mph /  11.9km/h 76% 0in /  0.0mm
21:53 36.5 °F /  2.5 °C 30.2 °F /  -1.0 °C 30in /  1015.1hPa Calm   7.4mph /  11.9km/h 76% 0in /  0.0mm
21:58 36.3 °F /  2.4 °C 30.2 °F /  -1.0 °C 30in /  1015.1hPa SSW 4.9mph /  7.9km/h 6.5mph /  10.5km/h 77% 0in /  0.0mm
22:03 36.1 °F /  2.3 °C 30.2 °F /  -1.0 °C 30in /  1015.1hPa Calm   6.5mph /  10.5km/h 77% 0in /  0.0mm
22:08 36 °F /  2.2 °C 30.2 °F /  -1.0 °C 30in /  1015.1hPa Calm   5.4mph /  8.7km/h 77% 0in /  0.0mm
22:13 35.8 °F /  2.1 °C 30.2 °F /  -1.0 °C 30in /  1015.1hPa SW 3.1mph /  5.0km/h 4.9mph /  7.9km/h 78% 0in /  0.0mm
22:18 35.8 °F /  2.1 °C 30.2 °F /  -1.0 °C 30in /  1015.1hPa Calm   4.9mph /  7.9km/h 78% 0in /  0.0mm
22:23 35.8 °F /  2.1 °C 30.2 °F /  -1.0 °C 30in /  1015.1hPa Calm   4mph /  6.4km/h 78% 0in /  0.0mm
22:28 35.6 °F /  2.0 °C 30.2 °F /  -1.0 °C 30in /  1015.1hPa Calm   4.9mph /  7.9km/h 79% 0in /  0.0mm
22:33 35.4 °F /  1.9 °C 30.2 °F /  -1.0 °C 30in /  1015.1hPa South 4.3mph /  6.9km/h 4.9mph /  7.9km/h 79% 0in /  0.0mm
22:38 35.2 °F /  1.8 °C 30.2 °F /  -1.0 °C 30in /  1015.1hPa SSW 3.8mph /  6.1km/h 4.3mph /  6.9km/h 79% 0in /  0.0mm
22:43 35.1 °F /  1.7 °C 30.2 °F /  -1.0 °C 30in /  1015.1hPa Calm   4.3mph /  6.9km/h 79% 0in /  0.0mm
22:48 34.9 °F /  1.6 °C 30.2 °F /  -1.0 °C 30in /  1015.1hPa Calm   3.1mph /  5.0km/h 79% 0in /  0.0mm
22:53 34.5 °F /  1.4 °C 30.2 °F /  -1.0 °C 30in /  1015.1hPa Calm   3.8mph /  6.1km/h 80% 0in /  0.0mm
22:59 34.5 °F /  1.4 °C 30.2 °F /  -1.0 °C 30in /  1015.1hPa South 2.2mph /  3.5km/h 3.8mph /  6.1km/h 80% 0in /  0.0mm
23:04 34.3 °F /  1.3 °C 30.2 °F /  -1.0 °C 30in /  1015.1hPa Calm   4mph /  6.4km/h 81% 0in /  0.0mm
23:09 34.2 °F /  1.2 °C 30.2 °F /  -1.0 °C 30in /  1015.1hPa Calm   4mph /  6.4km/h 81% 0in /  0.0mm
23:14 34 °F /  1.1 °C 30.2 °F /  -1.0 °C 30in /  1015.1hPa SSW 3.6mph /  5.8km/h 3.8mph /  6.1km/h 82% 0in /  0.0mm
23:19 34 °F /  1.1 °C 30.2 °F /  -1.0 °C 30in /  1015.1hPa Calm   5.8mph /  9.3km/h 84% 0in /  0.0mm
23:24 34 °F /  1.1 °C 30.2 °F /  -1.0 °C 30in /  1015.1hPa Calm   6.9mph /  11.1km/h 84% 0in /  0.0mm
23:29 34 °F /  1.1 °C 30.2 °F /  -1.0 °C 29.9in /  1014.1hPa SSW 4.3mph /  6.9km/h 6.9mph /  11.1km/h 85% 0in /  0.0mm
23:34 34 °F /  1.1 °C 30.2 °F /  -1.0 °C 29.9in /  1014.1hPa Calm   6mph /  9.7km/h 85% 0in /  0.0mm
23:39 34 °F /  1.1 °C 30.2 °F /  -1.0 °C 29.9in /  1014.1hPa South 4.3mph /  6.9km/h 4.3mph /  6.9km/h 85% 0in /  0.0mm
23:44 33.8 °F /  1.0 °C 30.2 °F /  -1.0 °C 29.9in /  1014.1hPa Calm   4.3mph /  6.9km/h 85% 0in /  0.0mm
23:49 33.6 °F /  0.9 °C 30.2 °F /  -1.0 °C 29.9in /  1014.1hPa Calm   3.8mph /  6.1km/h 86% 0in /  0.0mm
23:54 33.6 °F /  0.9 °C 30.2 °F /  -1.0 °C 29.9in /  1014.1hPa Calm   3.4mph /  5.5km/h 86% 0in /  0.0mm
23:59 33.4 °F /  0.8 °C 30.2 °F /  -1.0 °C 29.9in /  1014.1hPa Calm   1.3mph /  2.1km/h 86% 0in /  0.0mm
Données Historique de Météo Turbie

Mise a jour : 20/06/2018 19:09:11
Généré par Cumulus 1.9.4 (1099)